createdAt,value
2018-05-13T00:02:26.353Z,94867.30
2018-05-13T00:04:53.089Z,94870.59
2018-05-13T00:07:19.800Z,94876.93
2018-05-13T00:09:46.462Z,94885.23
2018-05-13T00:12:13.170Z,94885.75
2018-05-13T00:14:39.873Z,94884.02
2018-05-13T00:17:06.611Z,94879.33
2018-05-13T00:19:33.237Z,94879.80
2018-05-13T00:21:59.901Z,94884.69
2018-05-13T00:24:26.696Z,94887.80
2018-05-13T00:26:53.327Z,94889.86
2018-05-13T00:29:20.010Z,94889.09
2018-05-13T00:31:46.783Z,94896.09
2018-05-13T00:34:13.484Z,94895.67
2018-05-13T00:36:40.140Z,94891.33
2018-05-13T00:39:06.812Z,94888.56
2018-05-13T00:41:33.480Z,94886.34
2018-05-13T00:44:00.151Z,94888.45
2018-05-13T00:46:26.844Z,94881.66
2018-05-13T00:48:53.519Z,94883.68
2018-05-13T00:51:20.217Z,94886.16
2018-05-13T00:53:46.912Z,94889.79
2018-05-13T00:56:13.624Z,94889.73
2018-05-13T00:58:40.258Z,94886.34
2018-05-13T01:01:06.932Z,94896.35
2018-05-13T01:03:33.677Z,94894.08
2018-05-13T01:06:00.312Z,94896.31
2018-05-13T01:08:27.046Z,94886.72
2018-05-13T01:10:53.719Z,94881.33
2018-05-13T01:13:20.347Z,94877.42
2018-05-13T01:15:47.009Z,94877.00
2018-05-13T01:18:13.745Z,94884.70
2018-05-13T01:20:40.409Z,94887.39
2018-05-13T01:23:07.039Z,94889.50
2018-05-13T01:25:33.714Z,94890.56
2018-05-13T01:28:00.483Z,94884.66
2018-05-13T01:30:27.192Z,94881.70
2018-05-13T01:32:53.893Z,94880.53
2018-05-13T01:35:20.522Z,94877.77
2018-05-13T01:37:47.227Z,94885.51
2018-05-13T01:40:13.929Z,94881.27
2018-05-13T01:42:40.648Z,94879.03
2018-05-13T01:45:07.288Z,94882.06
2018-05-13T01:47:34.039Z,94877.34
2018-05-13T01:50:00.696Z,94875.97
2018-05-13T01:52:27.360Z,94874.86
2018-05-13T01:54:54.002Z,94866.00
2018-05-13T01:57:20.682Z,94872.19
2018-05-13T01:59:47.383Z,94867.22
2018-05-13T02:02:14.081Z,94869.75
2018-05-13T02:04:40.752Z,94871.00
2018-05-13T02:07:07.419Z,94873.10
2018-05-13T02:09:34.081Z,94869.63
2018-05-13T02:12:00.798Z,94874.29
2018-05-13T02:14:27.488Z,94873.23
2018-05-13T02:16:54.195Z,94872.14
2018-05-13T02:19:20.909Z,94870.92
2018-05-13T02:21:47.535Z,94875.00
2018-05-13T02:24:14.281Z,94869.63
2018-05-13T02:26:40.915Z,94873.48
2018-05-13T02:29:07.597Z,94869.07
2018-05-13T02:31:34.250Z,94872.90
2018-05-13T02:34:00.949Z,94874.16
2018-05-13T02:36:27.676Z,94867.52
2018-05-13T02:38:54.325Z,94868.81
2018-05-13T02:41:21.009Z,94867.19
2018-05-13T02:43:47.657Z,94859.83
2018-05-13T02:46:14.392Z,94868.48
2018-05-13T02:48:41.096Z,94870.46
2018-05-13T02:51:07.747Z,94869.78
2018-05-13T02:53:34.411Z,94861.34
2018-05-13T02:56:01.011Z,94866.22
2018-05-13T02:58:27.661Z,94869.99
2018-05-13T03:00:54.596Z,94872.66
2018-05-13T03:03:21.284Z,94868.33
2018-05-13T03:05:47.953Z,94865.13
2018-05-13T03:08:14.557Z,94859.88
2018-05-13T03:10:41.241Z,94862.39
2018-05-13T03:13:07.995Z,94859.16
2018-05-13T03:15:34.684Z,94860.88
2018-05-13T03:18:01.321Z,94851.00
2018-05-13T03:20:27.952Z,94851.13
2018-05-13T03:22:54.563Z,94864.45
2018-05-13T03:25:21.271Z,94861.22
2018-05-13T03:27:47.899Z,94858.61
2018-05-13T03:30:14.536Z,94858.70
2018-05-13T03:32:41.175Z,94857.94
2018-05-13T03:35:07.805Z,94861.34
2018-05-13T03:37:34.416Z,94864.33
2018-05-13T03:40:01.056Z,94860.42
2018-05-13T03:42:27.768Z,94852.73
2018-05-13T03:44:54.401Z,94852.73
2018-05-13T03:47:21.098Z,94855.42
2018-05-13T03:49:47.738Z,94863.53
2018-05-13T03:52:14.369Z,94862.86
2018-05-13T03:54:40.980Z,94861.97
2018-05-13T03:57:07.654Z,94857.90
2018-05-13T03:59:34.354Z,94851.88
2018-05-13T04:02:00.950Z,94856.76
2018-05-13T04:04:27.629Z,94851.23
2018-05-13T04:06:54.288Z,94844.41
2018-05-13T04:09:20.934Z,94843.03
2018-05-13T04:11:47.614Z,94850.92
2018-05-13T04:14:14.249Z,94853.04
2018-05-13T04:16:40.911Z,94849.35
2018-05-13T04:19:07.521Z,94856.42
2018-05-13T04:21:34.197Z,94855.27
2018-05-13T04:24:00.869Z,94857.97
2018-05-13T04:26:27.554Z,94856.25
2018-05-13T04:28:54.212Z,94856.13
2018-05-13T04:31:20.844Z,94850.83
2018-05-13T04:33:47.490Z,94845.73
2018-05-13T04:36:14.195Z,94850.70
2018-05-13T04:38:40.798Z,94842.70
2018-05-13T04:41:07.515Z,94850.21
2018-05-13T04:43:34.156Z,94851.05
2018-05-13T04:46:00.829Z,94853.31
2018-05-13T04:48:27.510Z,94857.91
2018-05-13T04:50:54.113Z,94857.03
2018-05-13T04:53:20.751Z,94850.27
2018-05-13T04:55:47.427Z,94853.81
2018-05-13T04:58:14.057Z,94849.34
2018-05-13T05:00:40.704Z,94845.61
2018-05-13T05:03:07.307Z,94844.77
2018-05-13T05:05:33.974Z,94845.48
2018-05-13T05:08:00.616Z,94845.15
2018-05-13T05:10:27.325Z,94852.82
2018-05-13T05:12:53.925Z,94846.56
2018-05-13T05:15:20.603Z,94842.59
2018-05-13T05:17:47.266Z,94848.34
2018-05-13T05:20:13.874Z,94829.25
2018-05-13T05:22:41.908Z,94850.86
2018-05-13T05:25:07.198Z,94846.08
2018-05-13T05:27:33.858Z,94853.52
2018-05-13T05:30:00.463Z,94851.59
2018-05-13T05:32:27.128Z,94851.05
2018-05-13T05:34:53.810Z,94857.91
2018-05-13T05:37:20.450Z,94851.72
2018-05-13T05:39:47.200Z,94845.03
2018-05-13T05:42:13.874Z,94844.46
2018-05-13T05:44:40.553Z,94846.98
2018-05-13T05:47:07.184Z,94856.57
2018-05-13T05:49:33.832Z,94861.45
2018-05-13T05:52:00.495Z,94858.28
2018-05-13T05:54:27.169Z,94856.80
2018-05-13T05:56:53.808Z,94856.37
2018-05-13T05:59:20.478Z,94847.41
2018-05-13T06:01:47.122Z,94855.74
2018-05-13T06:04:13.750Z,94845.39
2018-05-13T06:06:40.467Z,94839.73
2018-05-13T06:09:07.111Z,94840.86
2018-05-13T06:11:33.708Z,94843.22
2018-05-13T06:14:00.361Z,94842.72
2018-05-13T06:16:27.086Z,94843.22
2018-05-13T06:18:53.780Z,94845.26
2018-05-13T06:23:47.119Z,94845.62
2018-05-13T06:26:13.859Z,94853.47
2018-05-13T06:28:40.460Z,94849.77
2018-05-13T06:31:07.096Z,94838.83
2018-05-13T06:33:33.781Z,94830.64
2018-05-13T06:36:00.416Z,94832.98
2018-05-13T06:38:27.088Z,94832.05
2018-05-13T06:40:53.735Z,94833.30
2018-05-13T06:43:20.410Z,94830.09
2018-05-13T06:45:47.127Z,94827.17
2018-05-13T06:48:13.770Z,94830.64
2018-05-13T06:50:40.418Z,94829.72
2018-05-13T06:53:09.872Z,94832.55
2018-05-13T06:55:36.510Z,94831.80
2018-05-13T06:58:03.141Z,94827.05
2018-05-13T07:00:29.776Z,94830.41
2018-05-13T07:02:56.409Z,94826.50
2018-05-13T07:05:23.032Z,94824.97
2018-05-13T07:07:49.646Z,94828.06
2018-05-13T07:10:16.320Z,94821.44
2018-05-13T07:12:42.933Z,94816.30
2018-05-13T07:15:09.560Z,94818.71
2018-05-13T07:17:36.195Z,94808.72
2018-05-13T07:20:02.835Z,94814.42
2018-05-13T07:22:29.503Z,94814.74
2018-05-13T07:24:56.131Z,94815.55
2018-05-13T07:27:22.862Z,94812.77
2018-05-13T07:29:49.530Z,94803.73
2018-05-13T07:32:16.110Z,94806.19
2018-05-13T07:34:42.749Z,94802.13
2018-05-13T07:37:09.430Z,94802.33
2018-05-13T07:39:36.054Z,94804.15
2018-05-13T07:42:02.658Z,94810.41
2018-05-13T07:44:29.323Z,94801.63
2018-05-13T07:46:55.942Z,94801.30
2018-05-13T07:49:22.622Z,94796.86
2018-05-13T07:51:49.219Z,94800.23
2018-05-13T07:54:15.850Z,94793.06
2018-05-13T07:56:42.494Z,94794.99
2018-05-13T07:59:09.166Z,94785.62
2018-05-13T08:01:35.890Z,94775.66
2018-05-13T08:04:02.494Z,94777.73
2018-05-13T08:06:29.131Z,94775.00
2018-05-13T08:08:55.806Z,94777.97
2018-05-13T08:11:22.402Z,94777.36
2018-05-13T08:13:49.040Z,94771.31
2018-05-13T08:16:15.822Z,94765.04
2018-05-13T08:18:42.453Z,94769.11
2018-05-13T08:21:09.096Z,94763.82
2018-05-13T08:23:35.729Z,94761.95
2018-05-13T08:26:02.370Z,94759.78
2018-05-13T08:28:29.033Z,94756.20
2018-05-13T08:30:55.674Z,94753.99
2018-05-13T08:33:22.265Z,94751.98
2018-05-13T08:35:48.901Z,94755.41
2018-05-13T08:38:15.565Z,94744.38
2018-05-13T08:40:42.203Z,94747.67
2018-05-13T08:43:08.832Z,94738.41
2018-05-13T08:45:35.442Z,94734.05
2018-05-13T08:48:02.112Z,94729.33
2018-05-13T08:50:28.762Z,94729.71
2018-05-13T08:52:55.355Z,94725.09
2018-05-13T08:55:21.992Z,94721.52
2018-05-13T08:57:48.640Z,94720.70
2018-05-13T09:00:15.270Z,94714.13
2018-05-13T09:02:41.951Z,94718.80
2018-05-13T09:05:08.587Z,94719.97
2018-05-13T09:07:35.198Z,94717.87
2018-05-13T09:10:01.840Z,94717.98
2018-05-13T09:12:28.464Z,94721.71
2018-05-13T09:14:55.142Z,94720.68
2018-05-13T09:17:21.777Z,94722.75
2018-05-13T09:19:48.416Z,94715.66
2018-05-13T09:22:15.052Z,94709.30
2018-05-13T09:24:41.679Z,94712.83
2018-05-13T09:27:08.308Z,94714.41
2018-05-13T09:29:34.954Z,94712.44
2018-05-13T09:32:01.576Z,94709.41
2018-05-13T09:34:28.257Z,94701.54
2018-05-13T09:36:54.849Z,94700.72
2018-05-13T09:39:21.481Z,94701.47
2018-05-13T09:41:48.152Z,94698.49
2018-05-13T09:44:14.801Z,94701.02
2018-05-13T09:46:41.468Z,94704.92
2018-05-13T09:49:08.093Z,94705.14
2018-05-13T09:51:34.701Z,94695.48
2018-05-13T09:54:01.363Z,94701.31
2018-05-13T09:56:28.000Z,94691.84
2018-05-13T09:58:54.633Z,94691.98
2018-05-13T10:01:21.237Z,94683.41
2018-05-13T10:03:47.882Z,94679.23
2018-05-13T10:06:14.524Z,94677.91
2018-05-13T10:08:41.195Z,94675.96
2018-05-13T10:11:07.795Z,94672.80
2018-05-13T10:13:34.471Z,94677.95
2018-05-13T10:16:01.071Z,94665.84
2018-05-13T10:18:27.745Z,94663.58
2018-05-13T10:20:54.373Z,94661.67
2018-05-13T10:23:20.982Z,94660.12
2018-05-13T10:25:47.672Z,94650.71
2018-05-13T10:28:14.303Z,94646.34
2018-05-13T10:30:40.940Z,94635.89
2018-05-13T10:33:07.551Z,94630.58
2018-05-13T10:35:34.476Z,94632.31
2018-05-13T10:38:01.066Z,94627.50
2018-05-13T10:40:27.745Z,94621.37
2018-05-13T10:42:54.382Z,94618.88
2018-05-13T10:45:21.018Z,94615.53
2018-05-13T10:47:47.648Z,94607.48
2018-05-13T10:50:14.283Z,94611.62
2018-05-13T10:52:40.921Z,94605.36
2018-05-13T10:55:07.589Z,94608.45
2018-05-13T10:57:34.190Z,94614.77
2018-05-13T11:00:00.914Z,94619.14
2018-05-13T11:02:27.521Z,94617.86
2018-05-13T11:04:54.149Z,94623.20
2018-05-13T11:07:20.811Z,94620.29
2018-05-13T11:09:47.418Z,94626.69
2018-05-13T11:12:14.097Z,94618.66
2018-05-13T11:14:40.736Z,94627.56
2018-05-13T11:17:07.408Z,94613.97
2018-05-13T11:19:34.052Z,94609.74
2018-05-13T11:22:00.702Z,94604.39
2018-05-13T11:24:27.338Z,94592.34
2018-05-13T11:26:54.020Z,94579.80
2018-05-13T11:29:20.640Z,94570.80
2018-05-13T11:31:47.267Z,94566.81
2018-05-13T11:34:16.792Z,94562.12
2018-05-13T11:36:43.530Z,94564.11
2018-05-13T11:39:10.126Z,94569.63
2018-05-13T11:41:36.798Z,94586.90
2018-05-13T11:44:03.431Z,94596.77
2018-05-13T11:46:30.115Z,94597.90
2018-05-13T11:48:56.796Z,94603.39
2018-05-13T11:51:23.389Z,94618.06
2018-05-13T11:53:50.084Z,94636.92
2018-05-13T11:56:16.756Z,94661.84
2018-05-13T11:58:43.353Z,94693.42
2018-05-13T12:01:10.036Z,94711.03
2018-05-13T12:03:36.649Z,94728.53
2018-05-13T12:06:03.287Z,94731.36
2018-05-13T12:08:29.950Z,94716.15
2018-05-13T12:10:56.559Z,94701.48
2018-05-13T12:13:23.190Z,94688.60
2018-05-13T12:15:49.825Z,94684.61
2018-05-13T12:18:16.463Z,94691.23
2018-05-13T12:20:43.145Z,94701.19
2018-05-13T12:23:09.855Z,94693.30
2018-05-13T12:25:36.484Z,94685.20
2018-05-13T12:28:03.087Z,94693.13
2018-05-13T12:30:29.737Z,94690.38
2018-05-13T12:32:56.378Z,94678.56
2018-05-13T12:35:23.071Z,94673.45
2018-05-13T12:37:49.720Z,94681.98
2018-05-13T12:40:16.352Z,94684.77
2018-05-13T12:42:42.955Z,94683.45
2018-05-13T12:45:09.632Z,94675.33
2018-05-13T12:47:36.362Z,94659.88
2018-05-13T12:50:02.968Z,94657.38
2018-05-13T12:52:29.611Z,94646.85
2018-05-13T12:54:56.257Z,94643.95
2018-05-13T12:57:22.930Z,94637.00
2018-05-13T12:59:50.826Z,94630.95
2018-05-13T13:02:16.247Z,94621.44
2018-05-13T13:04:42.871Z,94623.42
2018-05-13T13:07:09.507Z,94618.88
2018-05-13T13:09:36.169Z,94611.96
2018-05-13T13:12:02.793Z,94601.02
2018-05-13T13:14:29.448Z,94606.02
2018-05-13T13:16:56.084Z,94616.66
2018-05-13T13:19:22.777Z,94613.47
2018-05-13T13:21:49.450Z,94612.30
2018-05-13T13:24:16.054Z,94618.42
2018-05-13T13:26:42.743Z,94615.12
2018-05-13T13:29:09.371Z,94615.01
2018-05-13T13:31:35.964Z,94603.92
2018-05-13T13:34:02.637Z,94604.06
2018-05-13T13:36:29.247Z,94592.22
2018-05-13T13:38:55.899Z,94595.03
2018-05-13T13:41:22.668Z,94581.13
2018-05-13T13:43:49.305Z,94581.84
2018-05-13T13:46:15.981Z,94578.91
2018-05-13T13:48:42.609Z,94584.63
2018-05-13T13:51:09.289Z,94577.07
2018-05-13T13:53:35.898Z,94574.18
2018-05-13T13:56:02.624Z,94576.50
2018-05-13T13:58:29.298Z,94577.78
2018-05-13T14:00:56.013Z,94580.64
2018-05-13T14:03:22.695Z,94578.83
2018-05-13T14:05:49.294Z,94585.75
2018-05-13T14:08:16.013Z,94587.70
2018-05-13T14:10:42.616Z,94591.69
2018-05-13T14:13:09.245Z,94596.73
2018-05-13T14:15:35.894Z,94597.14
2018-05-13T14:18:02.559Z,94598.01
2018-05-13T14:20:29.357Z,94596.65
2018-05-13T14:22:55.913Z,94595.56
2018-05-13T14:25:22.550Z,94600.18
2018-05-13T14:27:49.228Z,94600.38
2018-05-13T14:30:15.839Z,94597.22
2018-05-13T14:32:42.541Z,94590.52
2018-05-13T14:35:09.179Z,94590.00
2018-05-13T14:37:35.791Z,94587.74
2018-05-13T14:40:02.464Z,94586.80
2018-05-13T14:42:29.202Z,94582.25
2018-05-13T14:44:55.840Z,94580.06
2018-05-13T14:47:22.526Z,94570.92
2018-05-13T14:49:49.156Z,94568.00
2018-05-13T14:52:15.871Z,94567.84
2018-05-13T14:54:42.479Z,94557.89
2018-05-13T14:57:09.143Z,94561.31
2018-05-13T14:59:35.751Z,94560.09
2018-05-13T15:02:02.524Z,94556.12
2018-05-13T15:04:29.163Z,94561.69
2018-05-13T15:06:55.758Z,94558.22
2018-05-13T15:09:22.400Z,94558.11
2018-05-13T15:11:49.068Z,94565.77
2018-05-13T15:14:15.710Z,94558.86
2018-05-13T15:16:42.331Z,94562.24
2018-05-13T15:19:08.982Z,94563.67
2018-05-13T15:21:35.654Z,94561.10
2018-05-13T15:24:02.298Z,94554.04
2018-05-13T15:26:28.936Z,94549.42
2018-05-13T15:28:55.688Z,94548.25
2018-05-13T15:31:22.325Z,94550.44
2018-05-13T15:33:49.000Z,94557.88
2018-05-13T15:36:15.633Z,94559.45
2018-05-13T15:38:42.341Z,94565.84
2018-05-13T15:41:08.979Z,94566.28
2018-05-13T15:43:35.611Z,94568.05
2018-05-13T15:46:02.285Z,94576.28
2018-05-13T15:48:29.028Z,94564.92
2018-05-13T15:50:55.662Z,94572.97
2018-05-13T15:53:22.338Z,94576.02
2018-05-13T15:55:48.969Z,94576.31
2018-05-13T15:58:15.615Z,94569.28
2018-05-13T16:00:42.295Z,94571.23
2018-05-13T16:03:08.919Z,94571.39
2018-05-13T16:05:35.552Z,94574.55
2018-05-13T16:08:02.189Z,94580.74
2018-05-13T16:10:28.784Z,94577.70
2018-05-13T16:12:55.539Z,94573.68
2018-05-13T16:15:22.140Z,94574.72
2018-05-13T16:17:48.784Z,94582.02
2018-05-13T16:20:15.468Z,94586.19
2018-05-13T16:22:42.110Z,94592.42
2018-05-13T16:25:08.741Z,94588.26
2018-05-13T16:27:35.412Z,94592.91
2018-05-13T16:30:02.075Z,94602.71
2018-05-13T16:32:28.723Z,94607.08
2018-05-13T16:34:55.395Z,94620.85
2018-05-13T16:37:24.067Z,94633.39
2018-05-13T16:39:48.670Z,94626.30
2018-05-13T16:42:15.297Z,94624.48
2018-05-13T16:44:42.012Z,94621.38
2018-05-13T16:47:08.624Z,94626.20
2018-05-13T16:49:35.284Z,94627.70
2018-05-13T16:52:01.965Z,94628.06
2018-05-13T16:54:28.602Z,94629.29
2018-05-13T16:56:55.235Z,94620.59
2018-05-13T16:59:21.942Z,94616.62
2018-05-13T17:01:48.510Z,94618.33
2018-05-13T17:04:15.180Z,94615.23
2018-05-13T17:06:41.816Z,94626.57
2018-05-13T17:09:08.528Z,94624.23
2018-05-13T17:11:35.167Z,94632.57
2018-05-13T17:14:01.880Z,94636.30
2018-05-13T17:16:28.485Z,94641.38
2018-05-13T17:18:55.149Z,94646.78
2018-05-13T17:21:21.837Z,94656.45
2018-05-13T17:23:48.481Z,94654.63
2018-05-13T17:26:15.118Z,94664.59
2018-05-13T17:28:41.746Z,94667.57
2018-05-13T17:31:08.390Z,94666.24
2018-05-13T17:33:35.026Z,94666.39
2018-05-13T17:36:01.710Z,94669.28
2018-05-13T17:38:28.338Z,94688.31
2018-05-13T17:40:54.985Z,94684.89
2018-05-13T17:43:21.699Z,94685.91
2018-05-13T17:45:48.375Z,94679.39
2018-05-13T17:48:14.989Z,94676.07
2018-05-13T17:50:41.671Z,94681.80
2018-05-13T17:53:08.307Z,94681.37
2018-05-13T17:55:34.945Z,94680.84
2018-05-13T17:58:01.624Z,94670.95
2018-05-13T18:00:28.287Z,94674.63
2018-05-13T18:02:54.939Z,94667.79
2018-05-13T18:05:21.570Z,94663.42
2018-05-13T18:07:48.207Z,94664.52
2018-05-13T18:10:14.809Z,94663.05
2018-05-13T18:12:41.483Z,94665.28
2018-05-13T18:15:08.154Z,94666.93
2018-05-13T18:17:34.829Z,94671.59
2018-05-13T18:20:01.466Z,94679.49
2018-05-13T18:22:28.183Z,94686.88
2018-05-13T18:24:54.828Z,94696.98
2018-05-13T18:27:21.445Z,94697.55
2018-05-13T18:29:48.089Z,94698.51
2018-05-13T18:32:14.732Z,94694.98
2018-05-13T18:34:41.337Z,94692.58
2018-05-13T18:37:07.967Z,94685.05
2018-05-13T18:39:34.643Z,94681.52
2018-05-13T18:42:01.282Z,94685.11
2018-05-13T18:44:28.010Z,94689.59
2018-05-13T18:46:54.598Z,94685.25
2018-05-13T18:49:21.295Z,94680.70
2018-05-13T18:51:47.927Z,94676.16
2018-05-13T18:54:14.526Z,94672.48
2018-05-13T18:56:41.206Z,94667.95
2018-05-13T18:59:08.001Z,94666.30
2018-05-13T19:01:34.644Z,94662.27
2018-05-13T19:04:01.247Z,94661.52
2018-05-13T19:06:27.949Z,94659.88
2018-05-13T19:08:54.583Z,94670.61
2018-05-13T19:11:21.217Z,94666.13
2018-05-13T19:13:47.855Z,94658.37
2018-05-13T19:16:14.493Z,94664.16
2018-05-13T19:18:41.205Z,94651.77
2018-05-13T19:21:07.832Z,94649.25
2018-05-13T19:23:34.430Z,94646.48
2018-05-13T19:26:01.088Z,94652.92
2018-05-13T19:28:27.749Z,94646.56
2018-05-13T19:30:54.380Z,94648.06
2018-05-13T19:33:21.098Z,94644.16
2018-05-13T19:35:47.734Z,94648.81
2018-05-13T19:38:14.405Z,94647.69
2018-05-13T19:40:41.080Z,94652.09
2018-05-13T19:43:07.685Z,94646.88
2018-05-13T19:45:34.353Z,94648.76
2018-05-13T19:48:01.036Z,94645.17
2018-05-13T19:50:27.679Z,94644.22
2018-05-13T19:52:54.319Z,94646.88
2018-05-13T19:55:20.972Z,94645.17
2018-05-13T19:57:47.611Z,94648.41
2018-05-13T20:00:14.293Z,94649.77
2018-05-13T20:02:40.935Z,94651.97
2018-05-13T20:05:07.537Z,94648.23
2018-05-13T20:07:34.207Z,94652.45
2018-05-13T20:10:00.915Z,94649.25
2018-05-13T20:12:27.506Z,94653.64
2018-05-13T20:14:54.143Z,94663.95
2018-05-13T20:17:20.781Z,94663.80
2018-05-13T20:19:47.469Z,94667.55
2018-05-13T20:22:14.140Z,94665.97
2018-05-13T20:24:40.822Z,94661.56
2018-05-13T20:27:07.459Z,94662.44
2018-05-13T20:29:34.105Z,94658.01
2018-05-13T20:32:00.739Z,94661.16
2018-05-13T20:34:27.382Z,94650.75
2018-05-13T20:36:54.020Z,94654.68
2018-05-13T20:39:20.719Z,94658.32
2018-05-13T20:41:47.387Z,94656.62
2018-05-13T20:44:13.997Z,94639.00
2018-05-13T20:46:40.626Z,94642.55
2018-05-13T20:49:07.278Z,94638.13
2018-05-13T20:51:33.959Z,94642.41
2018-05-13T20:54:00.586Z,94640.91
2018-05-13T20:56:27.262Z,94641.37
2018-05-13T20:58:53.893Z,94644.49
2018-05-13T21:01:20.570Z,94648.23
2018-05-13T21:03:47.202Z,94649.87
2018-05-13T21:06:13.933Z,94649.36
2018-05-13T21:08:40.559Z,94655.22
2018-05-13T21:11:07.462Z,94649.49
2018-05-13T21:13:34.134Z,94652.84
2018-05-13T21:18:27.401Z,94662.24
2018-05-13T21:20:54.049Z,94663.25
2018-05-13T21:23:20.709Z,94662.66
2018-05-13T21:25:47.380Z,94656.11
2018-05-13T21:28:14.046Z,94662.16
2018-05-13T21:30:40.703Z,94655.17
2018-05-13T21:33:07.411Z,94653.63
2018-05-13T21:35:34.076Z,94667.25
2018-05-13T21:38:00.822Z,94671.25
2018-05-13T21:40:27.443Z,94671.45
2018-05-13T21:42:54.153Z,94677.44
2018-05-13T21:45:20.789Z,94684.22
2018-05-13T21:47:47.609Z,94679.25
2018-05-13T21:50:14.292Z,94671.23
2018-05-13T21:52:41.006Z,94663.75
2018-05-13T21:55:07.644Z,94662.03
2018-05-13T21:57:34.359Z,94668.83
2018-05-13T22:00:01.059Z,94665.45
2018-05-13T22:02:27.701Z,94677.61
2018-05-13T22:04:54.377Z,94682.92
2018-05-13T22:07:21.245Z,94680.38
2018-05-13T22:09:47.707Z,94684.97
2018-05-13T22:12:14.374Z,94690.03
2018-05-13T22:14:41.090Z,94693.31
2018-05-13T22:17:07.720Z,94697.53
2018-05-13T22:19:34.558Z,94699.74
2018-05-13T22:22:01.220Z,94704.27
2018-05-13T22:24:27.881Z,94707.44
2018-05-13T22:26:54.591Z,94713.41
2018-05-13T22:29:21.251Z,94710.38
2018-05-13T22:31:47.925Z,94709.08
2018-05-13T22:34:14.625Z,94709.69
2018-05-13T22:36:41.259Z,94720.18
2018-05-13T22:39:07.956Z,94714.91
2018-05-13T22:41:34.670Z,94710.26
2018-05-13T22:44:01.303Z,94714.72
2018-05-13T22:46:28.057Z,94707.20
2018-05-13T22:48:54.720Z,94708.80
2018-05-13T22:51:21.353Z,94706.02
2018-05-13T22:53:48.034Z,94704.75
2018-05-13T22:56:14.695Z,94707.83
2018-05-13T22:58:41.497Z,94701.36
2018-05-13T23:01:11.025Z,94700.41
2018-05-13T23:03:37.773Z,94695.79
2018-05-13T23:06:04.418Z,94700.12
2018-05-13T23:08:31.118Z,94694.95
2018-05-13T23:10:57.833Z,94689.45
2018-05-13T23:13:24.498Z,94689.23
2018-05-13T23:15:51.168Z,94694.31
2018-05-13T23:18:17.848Z,94685.68
2018-05-13T23:20:44.559Z,94679.36
2018-05-13T23:23:11.198Z,94679.50
2018-05-13T23:25:37.897Z,94674.81
2018-05-13T23:28:04.536Z,94674.42
2018-05-13T23:30:31.280Z,94672.19
2018-05-13T23:32:57.950Z,94676.10
2018-05-13T23:35:24.658Z,94669.46
2018-05-13T23:37:51.384Z,94670.35
2018-05-13T23:40:18.083Z,94664.94
2018-05-13T23:42:44.709Z,94667.95
2018-05-13T23:45:11.460Z,94670.52
2018-05-13T23:47:38.093Z,94660.48
2018-05-13T23:50:04.801Z,94660.36
2018-05-13T23:52:31.466Z,94660.89
2018-05-13T23:54:58.268Z,94662.76
2018-05-13T23:57:24.963Z,94662.58
2018-05-13T23:59:51.650Z,94658.29
